createdAt,value
2018-12-07T00:00:21.883Z,8.77
2018-12-07T00:05:26.610Z,8.77
2018-12-07T00:10:31.446Z,12.53
2018-12-07T00:15:36.206Z,10.17
2018-12-07T00:20:41.294Z,11.30
2018-12-07T00:25:46.126Z,9.70
2018-12-07T00:30:50.921Z,15.00
2018-12-07T00:35:56.031Z,12.20
2018-12-07T00:41:00.829Z,12.73
2018-12-07T00:46:05.634Z,14.80
2018-12-07T00:51:10.491Z,14.93
2018-12-07T00:56:15.314Z,16.23
2018-12-07T01:01:20.131Z,21.23
2018-12-07T01:06:24.910Z,18.20
2018-12-07T01:11:29.882Z,16.43
2018-12-07T01:16:34.676Z,17.40
2018-12-07T01:21:39.555Z,17.73
2018-12-07T01:26:44.444Z,15.07
2018-12-07T01:31:49.254Z,13.33
2018-12-07T01:36:54.061Z,12.63
2018-12-07T01:41:59.562Z,14.53
2018-12-07T01:47:04.449Z,12.23
2018-12-07T01:52:09.271Z,12.53
2018-12-07T01:57:14.103Z,11.03
2018-12-07T02:02:19.131Z,11.07
2018-12-07T02:07:31.579Z,10.80
2018-12-07T02:12:36.390Z,11.00
2018-12-07T02:17:42.315Z,11.97
2018-12-07T02:22:47.149Z,11.53
2018-12-07T02:27:57.545Z,11.30
2018-12-07T02:33:02.386Z,10.80
2018-12-07T02:38:07.235Z,12.20
2018-12-07T02:43:12.273Z,10.47
2018-12-07T02:48:17.161Z,11.47
2018-12-07T02:53:22.023Z,10.23
2018-12-07T02:58:26.836Z,9.17
2018-12-07T03:03:31.847Z,10.40
2018-12-07T03:08:36.653Z,8.47
2018-12-07T03:13:41.431Z,7.77
2018-12-07T03:18:46.335Z,7.80
2018-12-07T03:23:51.293Z,7.73
2018-12-07T03:28:56.071Z,8.77
2018-12-07T03:34:02.467Z,8.87
2018-12-07T03:39:07.694Z,7.87
2018-12-07T03:44:12.588Z,9.10
2018-12-07T03:49:17.651Z,9.50
2018-12-07T03:54:22.621Z,10.70
2018-12-07T03:59:27.497Z,8.90
2018-12-07T04:04:32.395Z,7.87
2018-12-07T04:09:37.521Z,7.67
2018-12-07T04:14:42.286Z,6.30
2018-12-07T04:19:47.226Z,7.57
2018-12-07T04:24:52.143Z,7.93
2018-12-07T04:30:08.516Z,8.90
2018-12-07T04:35:13.514Z,10.07
2018-12-07T04:40:18.463Z,10.07
2018-12-07T04:45:24.415Z,9.53
2018-12-07T04:50:31.090Z,10.90
2018-12-07T04:55:37.294Z,11.37
2018-12-07T05:00:42.142Z,12.55
2018-12-07T05:05:47.122Z,14.87
2018-12-07T05:10:52.335Z,15.80
2018-12-07T05:15:57.182Z,14.80
2018-12-07T05:21:02.190Z,13.53
2018-12-07T05:26:07.128Z,12.43
2018-12-07T05:31:12.005Z,12.93
2018-12-07T05:36:16.956Z,12.57
2018-12-07T05:41:22.183Z,11.97
2018-12-07T05:46:27.122Z,12.90
2018-12-07T05:51:31.969Z,12.17
2018-12-07T05:56:41.076Z,11.33
2018-12-07T06:01:46.055Z,13.30
2018-12-07T06:06:50.950Z,13.27
2018-12-07T06:11:56.043Z,13.23
2018-12-07T06:17:01.113Z,14.33
2018-12-07T06:22:06.514Z,13.93
2018-12-07T06:27:11.443Z,13.47
2018-12-07T06:32:16.572Z,14.57
2018-12-07T06:37:21.472Z,16.10
2018-12-07T06:42:26.459Z,13.60
2018-12-07T06:47:31.604Z,14.17
2018-12-07T06:52:36.514Z,12.67
2018-12-07T06:57:41.786Z,12.77
2018-12-07T07:02:46.827Z,13.10
2018-12-07T07:07:51.773Z,13.73
2018-12-07T07:12:56.953Z,13.87
2018-12-07T07:18:01.934Z,14.97
2018-12-07T07:23:06.941Z,16.80
2018-12-07T07:28:11.839Z,17.93
2018-12-07T07:33:16.766Z,18.77
2018-12-07T07:38:23.226Z,21.37
2018-12-07T07:43:28.428Z,19.50
2018-12-07T07:48:33.560Z,20.03
2018-12-07T07:53:38.550Z,22.02
2018-12-07T07:58:43.407Z,19.27
2018-12-07T08:03:48.631Z,17.77
2018-12-07T08:14:08.910Z,17.67
2018-12-07T08:19:14.047Z,15.60
2018-12-07T08:24:19.093Z,13.57
2018-12-07T08:29:24.381Z,13.60
2018-12-07T08:34:29.352Z,14.77
2018-12-07T08:39:35.252Z,17.03
2018-12-07T08:44:40.381Z,16.90
2018-12-07T08:49:51.229Z,18.33
2018-12-07T08:54:56.130Z,18.13
2018-12-07T09:00:00.987Z,20.33
2018-12-07T09:05:06.726Z,16.63
2018-12-07T09:10:11.602Z,16.15
2018-12-07T09:15:16.633Z,15.67
2018-12-07T09:20:21.603Z,14.97
2018-12-07T09:25:27.130Z,13.80
2018-12-07T09:30:32.033Z,13.77
2018-12-07T09:35:36.936Z,12.53
2018-12-07T09:40:42.966Z,12.43
2018-12-07T09:45:48.348Z,12.27
2018-12-07T09:51:05.218Z,13.10
2018-12-07T09:56:10.219Z,11.80
2018-12-07T10:01:15.472Z,10.30
2018-12-07T10:06:20.339Z,10.93
2018-12-07T10:16:42.476Z,9.93
2018-12-07T10:21:47.375Z,10.83
2018-12-07T10:26:52.446Z,8.43
2018-12-07T10:31:57.985Z,11.40
2018-12-07T10:37:03.435Z,8.30
2018-12-07T10:42:08.372Z,7.67
2018-12-07T10:47:13.366Z,8.57
2018-12-07T10:52:18.375Z,6.73
2018-12-07T10:57:23.735Z,6.30
2018-12-07T11:02:34.026Z,7.03
2018-12-07T11:07:44.638Z,7.33
2018-12-07T11:12:55.051Z,6.77
2018-12-07T11:18:05.503Z,5.87
2018-12-07T11:23:15.784Z,5.47
2018-12-07T11:29:29.061Z,4.57
2018-12-07T11:34:38.891Z,6.30
2018-12-07T11:39:43.765Z,5.50
2018-12-07T11:44:50.823Z,4.33
2018-12-07T11:55:07.890Z,2.83
2018-12-07T12:00:12.831Z,3.43
2018-12-07T12:05:17.795Z,4.20
2018-12-07T12:10:22.839Z,3.80
2018-12-07T12:15:27.926Z,5.57
2018-12-07T12:20:33.016Z,4.30
2018-12-07T12:25:38.087Z,3.70
2018-12-07T12:30:42.934Z,4.90
2018-12-07T12:35:48.002Z,4.07
2018-12-07T12:40:53.074Z,3.73
2018-12-07T12:45:58.034Z,3.60
2018-12-07T12:51:03.067Z,3.90
2018-12-07T12:56:08.187Z,3.83
2018-12-07T13:01:13.266Z,2.83
2018-12-07T13:06:18.351Z,5.33
2018-12-07T13:11:23.302Z,2.87
2018-12-07T13:16:28.187Z,3.70
2018-12-07T13:21:33.174Z,2.77
2018-12-07T13:26:38.202Z,4.87
2018-12-07T13:31:43.018Z,3.80
2018-12-07T13:36:47.913Z,3.53
2018-12-07T13:41:52.941Z,4.47
2018-12-07T13:46:58.191Z,3.40
2018-12-07T13:52:03.597Z,3.63
2018-12-07T13:57:08.756Z,2.13
2018-12-07T14:02:14.022Z,3.37
2018-12-07T14:07:19.247Z,1.87
2018-12-07T14:12:24.342Z,5.30
2018-12-07T14:17:29.595Z,5.13
2018-12-07T14:22:35.951Z,3.60
2018-12-07T14:27:41.192Z,3.80
2018-12-07T14:32:46.081Z,4.77
2018-12-07T14:37:50.926Z,2.87
2018-12-07T14:42:55.855Z,5.93
2018-12-07T14:48:01.125Z,6.90
2018-12-07T14:53:08.007Z,5.50
2018-12-07T14:58:13.433Z,7.47
2018-12-07T15:03:18.629Z,5.83
2018-12-07T15:08:24.105Z,8.13
2018-12-07T15:13:30.065Z,8.03
2018-12-07T15:18:35.241Z,14.80
2018-12-07T15:28:55.456Z,17.27
2018-12-07T15:34:00.481Z,17.20
2018-12-07T15:39:08.516Z,21.47
2018-12-07T15:44:14.462Z,14.83
